createdAt,value
2022-12-23T00:00:20.987Z,14.48
2022-12-23T00:03:25.951Z,12.68
2022-12-23T00:06:29.498Z,12.98
2022-12-23T00:09:32.976Z,14.70
2022-12-23T00:12:53.785Z,15.68
2022-12-23T00:16:02.785Z,22.60
2022-12-23T00:19:07.734Z,12.90
2022-12-23T00:22:14.674Z,15.65
2022-12-23T00:25:18.240Z,21.38
2022-12-23T00:28:22.767Z,16.02
2022-12-23T00:31:26.552Z,14.45
2022-12-23T00:34:31.377Z,17.40
2022-12-23T00:37:34.725Z,13.63
2022-12-23T00:41:01.199Z,17.80
2022-12-23T00:44:05.220Z,19.33
2022-12-23T00:47:28.796Z,17.10
2022-12-23T00:50:33.623Z,17.38
2022-12-23T00:53:36.941Z,16.42
2022-12-23T00:56:40.334Z,13.52
2022-12-23T00:59:43.688Z,12.73
2022-12-23T01:03:05.216Z,20.65
2022-12-23T01:06:10.084Z,16.08
2022-12-23T01:09:13.788Z,15.88
2022-12-23T01:12:17.609Z,19.92
2022-12-23T01:15:21.238Z,15.80
2022-12-23T01:18:24.725Z,15.20
2022-12-23T01:21:29.459Z,22.73
2022-12-23T01:24:33.384Z,13.88
2022-12-23T01:27:36.819Z,14.93
2022-12-23T01:30:40.436Z,15.65
2022-12-23T01:33:43.830Z,13.40
2022-12-23T01:36:48.636Z,13.68
2022-12-23T01:39:51.984Z,13.30
2022-12-23T01:42:55.347Z,13.98
2022-12-23T01:45:58.762Z,17.38
2022-12-23T01:49:02.313Z,16.50
2022-12-23T01:52:07.215Z,18.23
2022-12-23T01:55:10.948Z,15.55
2022-12-23T01:58:15.460Z,14.70
2022-12-23T02:01:37.126Z,12.40
2022-12-23T02:04:40.554Z,12.10
2022-12-23T02:08:03.559Z,14.55
2022-12-23T02:11:15.946Z,16.17
2022-12-23T02:14:41.627Z,20.63
2022-12-23T02:17:52.436Z,16.60
2022-12-23T02:21:19.833Z,17.95
2022-12-23T02:24:50.091Z,19.67
2022-12-23T02:28:04.028Z,16.40
2022-12-23T02:31:11.144Z,17.02
2022-12-23T02:34:17.611Z,23.48
2022-12-23T02:37:23.301Z,14.90
2022-12-23T02:40:33.336Z,18.08
2022-12-23T02:43:41.461Z,24.02
2022-12-23T02:46:48.439Z,17.98
2022-12-23T02:49:53.405Z,16.55
2022-12-23T02:52:58.923Z,15.38
2022-12-23T02:56:03.780Z,16.83
2022-12-23T02:59:10.389Z,20.77
2022-12-23T03:02:15.280Z,20.52
2022-12-23T03:05:25.803Z,17.58
2022-12-23T03:08:31.765Z,17.33
2022-12-23T03:11:40.141Z,18.42
2022-12-23T03:14:59.904Z,17.58
2022-12-23T03:18:07.177Z,18.13
2022-12-23T03:21:14.557Z,15.93
2022-12-23T03:24:23.440Z,20.05
2022-12-23T03:27:29.091Z,17.75
2022-12-23T03:30:35.394Z,20.83
2022-12-23T03:33:42.475Z,21.48
2022-12-23T03:36:48.652Z,24.83
2022-12-23T03:39:55.430Z,18.90
2022-12-23T03:43:02.363Z,27.20
2022-12-23T03:46:09.013Z,21.17
2022-12-23T03:49:16.879Z,24.33
2022-12-23T03:52:22.167Z,18.90
2022-12-23T03:55:27.991Z,17.98
2022-12-23T03:58:35.682Z,17.75
2022-12-23T04:01:42.230Z,23.35
2022-12-23T04:04:58.320Z,21.17
2022-12-23T04:08:05.457Z,15.45
2022-12-23T04:11:08.913Z,16.02
2022-12-23T04:14:12.322Z,22.70
2022-12-23T04:17:15.774Z,21.63
2022-12-23T04:20:20.774Z,21.98
2022-12-23T04:23:24.286Z,18.58
2022-12-23T04:26:27.660Z,18.90
2022-12-23T04:29:31.055Z,18.45
2022-12-23T04:32:34.753Z,20.35
2022-12-23T04:35:39.541Z,15.25
2022-12-23T04:38:42.980Z,16.52
2022-12-23T04:41:46.503Z,13.48
2022-12-23T04:44:50.628Z,17.75
2022-12-23T04:47:54.433Z,17.75
2022-12-23T04:50:59.340Z,15.25
2022-12-23T04:54:02.734Z,15.57
2022-12-23T04:57:06.221Z,16.58
2022-12-23T05:00:10.327Z,13.35
2022-12-23T05:03:13.885Z,15.98
2022-12-23T05:06:18.882Z,15.50
2022-12-23T05:09:22.457Z,17.20
2022-12-23T05:12:25.893Z,16.50
2022-12-23T05:15:29.371Z,17.20
2022-12-23T05:18:32.766Z,13.68
2022-12-23T05:21:37.710Z,16.00
2022-12-23T05:24:41.190Z,13.98
2022-12-23T05:27:44.595Z,14.02
2022-12-23T05:30:48.204Z,15.68
2022-12-23T05:33:51.535Z,12.70
2022-12-23T05:36:56.446Z,16.60
2022-12-23T05:39:59.829Z,16.48
2022-12-23T05:43:03.415Z,14.10
2022-12-23T05:46:07.046Z,17.92
2022-12-23T05:49:10.920Z,17.05
2022-12-23T05:52:16.586Z,17.35
2022-12-23T05:55:20.388Z,17.13
2022-12-23T05:58:23.938Z,19.67
2022-12-23T06:01:27.391Z,18.15
2022-12-23T06:04:30.786Z,16.05
2022-12-23T06:07:36.530Z,21.17
2022-12-23T06:10:40.739Z,23.42
2022-12-23T06:13:44.175Z,25.02
2022-12-23T06:16:47.640Z,24.58
2022-12-23T06:19:51.437Z,26.08
2022-12-23T06:22:56.352Z,21.23
2022-12-23T06:26:00.888Z,24.85
2022-12-23T06:29:04.920Z,25.77
2022-12-23T06:32:08.856Z,24.33
2022-12-23T06:35:12.322Z,26.38
2022-12-23T06:38:17.097Z,28.20
2022-12-23T06:41:20.631Z,25.42
2022-12-23T06:44:24.390Z,22.98
2022-12-23T06:47:27.846Z,24.40
2022-12-23T06:50:32.292Z,32.40
2022-12-23T06:53:37.859Z,27.85
2022-12-23T06:56:41.797Z,22.98
2022-12-23T06:59:45.378Z,27.15
2022-12-23T07:02:49.036Z,24.92
2022-12-23T07:05:52.824Z,24.10
2022-12-23T07:08:57.694Z,23.65
2022-12-23T07:12:01.180Z,21.83
2022-12-23T07:15:06.079Z,23.80
2022-12-23T07:18:09.773Z,20.50
2022-12-23T07:21:21.363Z,22.23
2022-12-23T07:24:29.866Z,21.95
2022-12-23T07:27:33.398Z,17.55
2022-12-23T07:30:37.513Z,23.98
2022-12-23T07:33:41.475Z,27.00
2022-12-23T07:36:44.881Z,20.80
2022-12-23T07:39:49.826Z,19.63
2022-12-23T07:42:58.753Z,20.90
2022-12-23T07:46:07.436Z,18.13
2022-12-23T07:49:10.911Z,26.00
2022-12-23T07:52:14.304Z,33.38
2022-12-23T07:55:19.087Z,24.42
2022-12-23T07:58:22.565Z,29.88
2022-12-23T08:01:26.067Z,25.50
2022-12-23T08:04:29.830Z,24.58
2022-12-23T08:07:33.560Z,23.90
2022-12-23T08:10:47.673Z,27.75
2022-12-23T08:13:52.905Z,26.63
2022-12-23T08:16:56.964Z,21.70
2022-12-23T08:20:02.273Z,24.85
2022-12-23T08:23:11.127Z,30.90
2022-12-23T08:26:17.620Z,26.33
2022-12-23T08:29:21.278Z,24.60
2022-12-23T08:32:27.240Z,23.13
2022-12-23T08:35:30.837Z,24.08
2022-12-23T08:38:34.696Z,25.67
2022-12-23T08:41:41.173Z,23.42
2022-12-23T08:44:45.211Z,21.23
2022-12-23T08:47:49.052Z,22.75
2022-12-23T08:50:52.828Z,25.98
2022-12-23T08:54:00.441Z,20.83
2022-12-23T08:57:06.110Z,19.80
2022-12-23T09:00:10.266Z,23.13
2022-12-23T09:03:17.670Z,21.52
2022-12-23T09:06:28.625Z,19.45
2022-12-23T09:09:38.778Z,17.95
2022-12-23T09:12:45.099Z,17.00
2022-12-23T09:15:49.174Z,20.52
2022-12-23T09:18:52.708Z,22.20
2022-12-23T09:21:56.565Z,18.55
2022-12-23T09:25:05.064Z,22.10
2022-12-23T09:28:12.203Z,25.27
2022-12-23T09:31:16.170Z,24.40
2022-12-23T09:34:19.720Z,19.73
2022-12-23T09:37:23.452Z,21.10
2022-12-23T09:40:30.513Z,21.05
2022-12-23T09:43:42.378Z,22.70
2022-12-23T09:46:48.817Z,19.83
2022-12-23T09:49:54.740Z,19.23
2022-12-23T09:53:00.972Z,21.00
2022-12-23T09:56:09.933Z,19.27
2022-12-23T09:59:22.409Z,20.02
2022-12-23T10:02:29.411Z,23.90
2022-12-23T10:05:36.871Z,27.70
2022-12-23T10:08:43.560Z,20.80
2022-12-23T10:11:55.205Z,28.48
2022-12-23T10:15:06.004Z,31.75
2022-12-23T10:18:14.351Z,25.30
2022-12-23T10:21:26.596Z,29.80
2022-12-23T10:24:37.660Z,27.42
2022-12-23T10:27:44.173Z,25.00
2022-12-23T10:31:23.708Z,22.85
2022-12-23T10:34:19.628Z,21.67
2022-12-23T10:37:28.221Z,23.45
2022-12-23T10:40:38.915Z,23.95
2022-12-23T10:43:48.452Z,21.25
2022-12-23T10:46:57.959Z,19.40
2022-12-23T10:50:12.823Z,26.77
2022-12-23T10:53:25.926Z,23.45
2022-12-23T10:56:31.139Z,22.77
2022-12-23T10:59:36.259Z,19.77
2022-12-23T11:02:48.293Z,27.98
2022-12-23T11:05:53.450Z,26.10
2022-12-23T11:08:57.935Z,24.33
2022-12-23T11:12:03.734Z,26.73
2022-12-23T11:15:08.107Z,26.35
2022-12-23T11:18:23.785Z,25.63
2022-12-23T11:21:28.255Z,24.30
2022-12-23T11:24:39.672Z,25.95
2022-12-23T11:27:46.596Z,26.80
2022-12-23T11:31:01.444Z,30.02
2022-12-23T11:34:07.244Z,27.95
2022-12-23T11:37:24.840Z,24.23
2022-12-23T11:40:29.446Z,28.35
2022-12-23T11:43:33.712Z,25.77
2022-12-23T11:46:37.176Z,23.08
2022-12-23T11:49:49.485Z,20.48
2022-12-23T11:52:53.721Z,24.42
2022-12-23T11:56:01.206Z,24.77
2022-12-23T11:59:07.703Z,30.35
2022-12-23T12:02:15.330Z,27.52
2022-12-23T12:05:23.385Z,30.30
2022-12-23T12:08:33.838Z,34.03
2022-12-23T12:11:41.131Z,27.92
2022-12-23T12:14:46.312Z,34.70
2022-12-23T12:17:57.672Z,28.60
2022-12-23T12:21:09.569Z,28.88
2022-12-23T12:24:21.478Z,25.35
2022-12-23T12:27:27.968Z,31.02
2022-12-23T12:30:34.943Z,26.50
2022-12-23T12:33:45.463Z,29.90
2022-12-23T12:36:54.049Z,33.05
2022-12-23T12:40:00.679Z,28.35
2022-12-23T12:43:06.878Z,27.90
2022-12-23T12:46:17.936Z,31.90
2022-12-23T12:49:27.134Z,23.63
2022-12-23T12:52:40.065Z,32.78
2022-12-23T12:55:50.012Z,29.33
2022-12-23T12:58:53.512Z,34.60
2022-12-23T13:02:09.040Z,26.95
2022-12-23T13:05:29.580Z,29.70
2022-12-23T13:08:41.347Z,29.23
2022-12-23T13:11:48.241Z,24.55
2022-12-23T13:14:58.955Z,24.45
2022-12-23T13:18:12.755Z,25.90
2022-12-23T13:21:21.563Z,27.38
2022-12-23T13:24:34.152Z,25.55
2022-12-23T13:27:41.455Z,25.13
2022-12-23T13:30:51.758Z,32.28
2022-12-23T13:33:59.662Z,26.92
2022-12-23T13:37:13.665Z,29.73
2022-12-23T13:40:27.029Z,32.53
2022-12-23T13:43:35.584Z,25.25
2022-12-23T13:46:45.402Z,30.45
2022-12-23T13:49:54.847Z,27.85
2022-12-23T13:53:05.153Z,24.95
2022-12-23T13:56:13.876Z,24.70
2022-12-23T13:59:17.952Z,27.42
2022-12-23T14:02:42.701Z,22.13
2022-12-23T14:05:50.083Z,21.83
2022-12-23T14:08:54.947Z,19.15
2022-12-23T14:12:13.602Z,23.10
2022-12-23T14:15:27.369Z,24.42
2022-12-23T14:18:47.778Z,23.50
2022-12-23T14:22:00.434Z,19.48
2022-12-23T14:25:23.946Z,25.02
2022-12-23T14:28:50.496Z,18.15
2022-12-23T14:31:59.950Z,20.35
2022-12-23T14:35:23.601Z,22.30
2022-12-23T14:38:29.001Z,22.02
2022-12-23T14:41:39.289Z,30.60
2022-12-23T14:44:49.671Z,26.38
2022-12-23T14:47:53.105Z,23.33
2022-12-23T14:51:00.123Z,28.92
2022-12-23T14:54:16.839Z,19.80
2022-12-23T14:57:23.084Z,22.67
2022-12-23T15:00:28.132Z,22.73
2022-12-23T15:03:38.436Z,23.42
2022-12-23T15:06:43.218Z,24.25
2022-12-23T15:10:08.794Z,22.48
2022-12-23T15:13:21.059Z,25.50
2022-12-23T15:16:36.868Z,28.73
2022-12-23T15:19:46.261Z,23.45
2022-12-23T15:22:50.265Z,31.80
2022-12-23T15:25:56.576Z,31.60
2022-12-23T15:29:03.702Z,30.23
2022-12-23T15:32:14.911Z,27.80
2022-12-23T15:35:25.353Z,27.95
2022-12-23T15:38:34.108Z,30.35
2022-12-23T15:41:44.260Z,22.85
2022-12-23T15:44:48.054Z,33.20
2022-12-23T15:47:53.443Z,27.25
2022-12-23T15:51:08.503Z,27.67
2022-12-23T15:54:28.137Z,28.00
2022-12-23T15:57:34.416Z,28.92
2022-12-23T16:00:42.549Z,28.23
2022-12-23T16:03:51.843Z,27.73
2022-12-23T16:06:56.865Z,29.23
2022-12-23T16:10:06.304Z,29.83
2022-12-23T16:13:22.473Z,26.55
2022-12-23T16:16:39.690Z,33.67
2022-12-23T16:19:47.688Z,31.02
2022-12-23T16:22:54.276Z,33.30
2022-12-23T16:26:09.088Z,31.00
2022-12-23T16:29:13.639Z,24.77
2022-12-23T16:32:20.379Z,27.17
2022-12-23T16:36:02.236Z,31.58
2022-12-23T16:39:13.509Z,27.23
2022-12-23T16:42:17.207Z,34.97
2022-12-23T16:45:21.047Z,30.65
2022-12-23T16:48:29.946Z,31.75
2022-12-23T16:51:35.403Z,29.95
2022-12-23T16:54:39.730Z,27.25
2022-12-23T16:57:43.531Z,31.92
2022-12-23T17:00:57.427Z,25.40
2022-12-23T17:04:01.798Z,22.83
2022-12-23T17:07:11.025Z,24.85
2022-12-23T17:10:15.612Z,27.08
2022-12-23T17:13:20.467Z,27.27
2022-12-23T17:16:25.251Z,24.15
2022-12-23T17:19:29.725Z,22.98
2022-12-23T17:22:35.770Z,23.05
2022-12-23T17:25:39.219Z,23.77
2022-12-23T17:28:42.601Z,23.67
2022-12-23T17:31:46.445Z,29.38
2022-12-23T17:34:49.973Z,26.75
2022-12-23T17:37:56.035Z,27.75
2022-12-23T17:41:21.716Z,26.35
2022-12-23T17:44:26.542Z,21.00
2022-12-23T17:47:40.115Z,24.90
2022-12-23T17:50:44.648Z,23.75
2022-12-23T17:53:57.729Z,22.50
2022-12-23T17:57:02.172Z,19.73
2022-12-23T18:00:09.938Z,24.73
2022-12-23T18:03:22.231Z,24.33
2022-12-23T18:06:26.499Z,22.75
2022-12-23T18:09:31.319Z,24.02
2022-12-23T18:12:36.266Z,26.67
2022-12-23T18:15:43.786Z,27.52
2022-12-23T18:18:47.401Z,22.42
2022-12-23T18:21:51.680Z,22.13
2022-12-23T18:24:59.528Z,28.20
2022-12-23T18:28:03.120Z,18.73
2022-12-23T18:31:06.829Z,25.23
2022-12-23T18:34:14.570Z,20.48
2022-12-23T18:37:18.455Z,29.90
2022-12-23T18:40:32.555Z,29.50
2022-12-23T18:43:36.441Z,28.33
2022-12-23T18:46:39.798Z,30.17
2022-12-23T18:49:43.979Z,25.27
2022-12-23T18:52:47.895Z,30.67
2022-12-23T18:55:52.781Z,25.13
2022-12-23T18:58:56.286Z,24.48
2022-12-23T19:01:59.783Z,18.88
2022-12-23T19:05:03.535Z,20.27
2022-12-23T19:08:06.970Z,17.20
2022-12-23T19:11:15.525Z,16.75
2022-12-23T19:14:19.386Z,18.92
2022-12-23T19:17:23.004Z,16.15
2022-12-23T19:20:26.496Z,14.63
2022-12-23T19:23:29.988Z,16.10
2022-12-23T19:26:34.707Z,18.23
2022-12-23T19:29:38.146Z,19.15
2022-12-23T19:32:41.795Z,18.67
2022-12-23T19:35:46.019Z,17.48
2022-12-23T19:38:49.571Z,16.83
2022-12-23T19:41:54.448Z,19.98
2022-12-23T19:44:58.015Z,17.40
2022-12-23T19:48:01.421Z,20.02
2022-12-23T19:51:05.812Z,18.13
2022-12-23T19:54:09.323Z,17.83
2022-12-23T19:57:14.338Z,19.60
2022-12-23T20:00:18.033Z,22.42
2022-12-23T20:03:21.632Z,21.17
2022-12-23T20:06:28.038Z,21.15
2022-12-23T20:09:31.459Z,20.05
2022-12-23T20:12:36.305Z,19.15
2022-12-23T20:15:39.915Z,17.23
2022-12-23T20:18:43.338Z,20.38
2022-12-23T20:21:46.982Z,19.73
2022-12-23T20:24:50.968Z,18.02
2022-12-23T20:27:55.827Z,16.77
2022-12-23T20:31:03.189Z,21.05
2022-12-23T20:34:07.387Z,15.18
2022-12-23T20:37:11.659Z,20.45
2022-12-23T20:40:17.635Z,22.02
2022-12-23T20:43:22.543Z,19.17
2022-12-23T20:46:26.026Z,22.13
2022-12-23T20:49:29.488Z,19.33
2022-12-23T20:52:33.126Z,16.27
2022-12-23T20:55:36.513Z,18.63
2022-12-23T20:58:57.600Z,20.40
2022-12-23T21:02:01.566Z,19.10
2022-12-23T21:05:05.506Z,19.58
2022-12-23T21:08:08.905Z,19.52
2022-12-23T21:11:12.788Z,18.02
2022-12-23T21:14:17.790Z,19.65
2022-12-23T21:17:23.647Z,20.25
2022-12-23T21:20:31.036Z,21.58
2022-12-23T21:23:37.887Z,21.92
2022-12-23T21:26:41.732Z,26.65
2022-12-23T21:29:47.526Z,14.63
2022-12-23T21:32:54.730Z,18.08
2022-12-23T21:35:58.429Z,18.50
2022-12-23T21:39:02.181Z,18.23
2022-12-23T21:42:05.693Z,17.33
2022-12-23T21:45:11.352Z,16.90
2022-12-23T21:48:14.723Z,17.38
2022-12-23T21:51:19.283Z,16.15
2022-12-23T21:54:23.118Z,17.48
2022-12-23T21:57:26.750Z,18.90
2022-12-23T22:00:31.924Z,19.42
2022-12-23T22:03:35.585Z,18.75
2022-12-23T22:06:40.073Z,16.92
2022-12-23T22:09:43.681Z,16.27
2022-12-23T22:12:47.158Z,16.90
2022-12-23T22:15:52.050Z,16.88
2022-12-23T22:18:55.895Z,16.65
2022-12-23T22:21:59.329Z,20.27
2022-12-23T22:25:03.216Z,20.52
2022-12-23T22:28:06.579Z,23.00
2022-12-23T22:31:17.354Z,17.88
2022-12-23T22:34:21.935Z,18.55
2022-12-23T22:37:25.280Z,24.75
2022-12-23T22:40:28.788Z,14.15
2022-12-23T22:43:32.208Z,16.88
2022-12-23T22:46:36.969Z,16.40
2022-12-23T22:49:40.449Z,15.32
2022-12-23T22:52:43.861Z,13.32
2022-12-23T22:55:47.322Z,18.15
2022-12-23T22:58:51.388Z,19.25
2022-12-23T23:01:56.398Z,26.33
2022-12-23T23:05:00.323Z,19.30
2022-12-23T23:08:03.790Z,24.35
2022-12-23T23:11:07.371Z,22.30
2022-12-23T23:14:10.912Z,20.55
2022-12-23T23:17:15.673Z,21.23
2022-12-23T23:20:19.165Z,18.63
2022-12-23T23:23:23.034Z,15.85
2022-12-23T23:26:27.227Z,16.90
2022-12-23T23:29:30.798Z,15.27
2022-12-23T23:32:35.706Z,15.77
2022-12-23T23:35:39.331Z,14.45
2022-12-23T23:38:42.751Z,15.23
2022-12-23T23:41:46.320Z,13.77
2022-12-23T23:44:49.748Z,14.43
2022-12-23T23:47:55.767Z,19.90
2022-12-23T23:51:04.609Z,16.75
2022-12-23T23:54:07.986Z,15.25
2022-12-23T23:57:11.415Z,13.98
